createdAt,value
2022-09-03T00:01:58.915Z,62.25
2022-09-03T00:04:36.189Z,62.65
2022-09-03T00:07:09.705Z,62.54
2022-09-03T00:09:42.546Z,63.23
2022-09-03T00:12:16.998Z,63.31
2022-09-03T00:14:51.434Z,63.32
2022-09-03T00:17:22.627Z,63.36
2022-09-03T00:19:57.395Z,63.40
2022-09-03T00:22:29.579Z,63.25
2022-09-03T00:33:27.583Z,63.42
2022-09-03T00:36:04.203Z,62.92
2022-09-03T00:38:32.747Z,63.18
2022-09-03T00:41:10.564Z,64.01
2022-09-03T00:44:05.408Z,64.18
2022-09-03T00:46:43.085Z,64.68
2022-09-03T00:49:28.180Z,64.87
2022-09-03T00:52:03.349Z,64.25
2022-09-03T00:54:42.712Z,64.24
2022-09-03T00:57:25.855Z,63.98
2022-09-03T01:00:06.450Z,63.97
2022-09-03T01:02:47.325Z,64.60
2022-09-03T01:05:34.430Z,65.03
2022-09-03T01:08:13.476Z,65.24
2022-09-03T01:10:47.400Z,65.41
2022-09-03T01:13:21.232Z,65.07
2022-09-03T01:16:04.320Z,65.17
2022-09-03T01:18:39.278Z,65.20
2022-09-03T01:21:36.666Z,65.29
2022-09-03T01:24:40.547Z,65.17
2022-09-03T01:27:22.528Z,64.78
2022-09-03T01:30:02.616Z,64.24
2022-09-03T01:32:40.635Z,64.45
2022-09-03T01:35:16.479Z,64.68
2022-09-03T01:37:58.578Z,64.92
2022-09-03T01:40:35.434Z,64.73
2022-09-03T01:43:20.005Z,64.74
2022-09-03T01:45:59.661Z,64.16
2022-09-03T01:48:44.296Z,63.94
2022-09-03T01:51:19.631Z,63.89
2022-09-03T01:54:21.551Z,64.77
2022-09-03T01:57:35.808Z,64.12
2022-09-03T02:00:09.236Z,63.88
2022-09-03T02:02:43.417Z,63.48
2022-09-03T02:05:14.951Z,63.78
2022-09-03T02:07:45.403Z,64.25
2022-09-03T02:10:15.542Z,63.83
2022-09-03T02:12:49.094Z,64.05
2022-09-03T02:15:19.792Z,64.36
2022-09-03T02:17:50.790Z,63.98
2022-09-03T02:20:22.019Z,64.24
2022-09-03T02:22:50.903Z,64.22
2022-09-03T02:25:19.072Z,64.96
2022-09-03T02:27:47.256Z,64.76
2022-09-03T02:30:15.116Z,64.74
2022-09-03T02:32:43.324Z,64.62
2022-09-03T02:35:12.880Z,64.46
2022-09-03T02:37:41.814Z,64.71
2022-09-03T02:40:11.121Z,65.52
2022-09-03T02:42:39.194Z,65.29
2022-09-03T02:45:20.232Z,65.10
2022-09-03T02:47:51.032Z,64.74
2022-09-03T02:50:20.225Z,65.14
2022-09-03T02:52:48.129Z,64.93
2022-09-03T02:55:16.610Z,65.35
2022-09-03T02:57:44.431Z,65.56
2022-09-03T03:00:13.842Z,65.84
2022-09-03T03:02:41.920Z,66.22
2022-09-03T03:05:16.278Z,65.73
2022-09-03T03:07:45.484Z,65.48
2022-09-03T03:10:13.825Z,65.57
2022-09-03T03:12:42.062Z,65.84
2022-09-03T03:15:10.853Z,66.11
2022-09-03T03:17:38.785Z,66.10
2022-09-03T03:20:08.418Z,66.52
2022-09-03T03:22:36.453Z,66.26
2022-09-03T03:25:06.707Z,66.03
2022-09-03T03:27:36.082Z,66.31
2022-09-03T03:30:09.880Z,66.59
2022-09-03T03:32:37.967Z,66.56
2022-09-03T03:35:07.622Z,66.41
2022-09-03T03:37:36.224Z,66.57
2022-09-03T03:40:06.801Z,66.60
2022-09-03T03:42:35.509Z,66.13
2022-09-03T03:45:03.765Z,66.22
2022-09-03T03:47:32.111Z,66.38
2022-09-03T03:50:00.477Z,66.43
2022-09-03T03:52:29.042Z,66.41
2022-09-03T03:54:57.289Z,66.79
2022-09-03T03:57:26.781Z,66.62
2022-09-03T03:59:54.874Z,66.32
2022-09-03T04:02:22.787Z,66.44
2022-09-03T04:04:50.733Z,66.08
2022-09-03T04:07:18.530Z,66.19
2022-09-03T04:09:47.363Z,66.40
2022-09-03T04:12:15.584Z,66.36
2022-09-03T04:14:44.767Z,67.09
2022-09-03T04:17:12.601Z,66.60
2022-09-03T04:19:40.596Z,67.18
2022-09-03T04:22:08.425Z,66.66
2022-09-03T04:24:36.759Z,66.43
2022-09-03T04:27:04.977Z,66.21
2022-09-03T04:29:32.981Z,66.71
2022-09-03T04:32:21.120Z,66.20
2022-09-03T04:34:49.038Z,66.40
2022-09-03T04:37:20.018Z,66.02
2022-09-03T04:39:48.104Z,65.69
2022-09-03T04:42:16.109Z,65.23
2022-09-03T04:44:44.047Z,65.53
2022-09-03T04:47:13.247Z,65.25
2022-09-03T04:49:41.193Z,65.50
2022-09-03T04:52:10.359Z,65.56
2022-09-03T04:54:38.560Z,65.49
2022-09-03T04:57:06.543Z,65.02
2022-09-03T04:59:34.631Z,64.87
2022-09-03T05:02:03.032Z,65.07
2022-09-03T05:04:32.310Z,65.54
2022-09-03T05:07:00.141Z,65.45
2022-09-03T05:09:28.045Z,65.22
2022-09-03T05:11:55.933Z,65.39
2022-09-03T05:14:24.039Z,65.86
2022-09-03T05:16:53.083Z,65.28
2022-09-03T05:19:21.290Z,65.09
2022-09-03T05:21:50.689Z,65.03
2022-09-03T05:24:18.816Z,65.70
2022-09-03T05:26:46.909Z,65.62
2022-09-03T05:29:16.072Z,65.27
2022-09-03T05:31:44.583Z,64.64
2022-09-03T05:34:16.380Z,64.99
2022-09-03T05:36:49.880Z,64.91
2022-09-03T05:39:19.317Z,64.90
2022-09-03T05:41:48.390Z,64.33
2022-09-03T05:44:16.218Z,64.82
2022-09-03T05:46:44.377Z,64.01
2022-09-03T05:49:12.646Z,63.59
2022-09-03T05:51:40.590Z,63.52
2022-09-03T05:54:09.291Z,63.21
2022-09-03T05:56:41.176Z,63.86
2022-09-03T05:59:11.030Z,63.78
2022-09-03T06:01:40.308Z,63.38
2022-09-03T06:04:10.170Z,63.05
2022-09-03T06:06:40.299Z,62.58
2022-09-03T06:09:10.802Z,62.87
2022-09-03T06:11:42.613Z,62.33
2022-09-03T06:14:12.364Z,62.53
2022-09-03T06:16:42.514Z,62.75
2022-09-03T06:19:11.741Z,64.18
2022-09-03T06:21:42.843Z,63.97
2022-09-03T06:24:12.978Z,62.50
2022-09-03T06:26:44.275Z,63.14
2022-09-03T06:29:12.571Z,62.34
2022-09-03T06:31:43.856Z,62.54
2022-09-03T06:34:12.544Z,62.20
2022-09-03T06:36:41.407Z,62.30
2022-09-03T06:39:09.331Z,61.29
2022-09-03T06:41:37.359Z,61.53
2022-09-03T06:44:11.868Z,61.86
2022-09-03T06:46:42.729Z,61.16
2022-09-03T06:49:11.223Z,60.57
2022-09-03T06:51:40.116Z,61.35
2022-09-03T06:54:09.544Z,60.29
2022-09-03T06:56:40.589Z,59.81
2022-09-03T06:59:12.189Z,59.17
2022-09-03T07:01:43.803Z,57.77
2022-09-03T07:04:16.287Z,41.61
2022-09-03T07:06:47.309Z,31.23
2022-09-03T07:09:18.166Z,27.11
2022-09-03T07:11:48.770Z,23.57
2022-09-03T07:14:21.480Z,18.70
2022-09-03T07:16:50.632Z,17.77
2022-09-03T07:19:18.803Z,18.29
2022-09-03T07:21:50.096Z,15.17
2022-09-03T07:24:19.454Z,15.30
2022-09-03T07:26:48.912Z,17.26
2022-09-03T07:29:21.580Z,18.90
2022-09-03T07:31:52.566Z,21.45
2022-09-03T07:34:25.369Z,23.87
2022-09-03T07:36:54.931Z,24.45
2022-09-03T07:39:22.962Z,20.21
2022-09-03T07:41:51.004Z,22.09
2022-09-03T07:44:20.742Z,20.14
2022-09-03T07:46:51.458Z,18.57
2022-09-03T07:49:21.884Z,19.67
2022-09-03T07:51:54.143Z,20.41
2022-09-03T07:54:24.104Z,19.81
2022-09-03T07:56:52.227Z,25.12
2022-09-03T07:59:23.119Z,21.78
2022-09-03T08:01:53.059Z,19.63
2022-09-03T08:04:22.127Z,19.94
2022-09-03T08:06:50.303Z,17.03
2022-09-03T08:09:18.470Z,15.65
2022-09-03T08:11:46.873Z,19.13
2022-09-03T08:14:16.597Z,17.58
2022-09-03T08:16:48.117Z,15.80
2022-09-03T08:19:18.556Z,15.77
2022-09-03T08:21:47.330Z,15.85
2022-09-03T08:24:17.679Z,16.08
2022-09-03T08:26:51.430Z,19.58
2022-09-03T08:29:20.894Z,16.87
2022-09-03T08:31:50.547Z,20.65
2022-09-03T08:34:18.707Z,20.36
2022-09-03T08:36:47.884Z,18.25
2022-09-03T08:39:15.952Z,17.07
2022-09-03T08:42:11.948Z,17.57
2022-09-03T08:44:48.069Z,16.78
2022-09-03T08:47:22.417Z,17.22
2022-09-03T08:49:55.744Z,19.92
2022-09-03T08:52:32.451Z,19.67
2022-09-03T08:55:19.998Z,18.25
2022-09-03T08:57:51.355Z,17.27
2022-09-03T09:00:20.236Z,15.36
2022-09-03T09:03:03.487Z,16.76
2022-09-03T09:05:45.661Z,18.11
2022-09-03T09:08:22.926Z,23.63
2022-09-03T09:11:03.542Z,21.84
2022-09-03T09:13:40.479Z,25.83
2022-09-03T09:16:17.220Z,27.20
2022-09-03T09:19:03.758Z,21.96
2022-09-03T09:21:37.283Z,20.98
2022-09-03T09:24:13.296Z,23.63
2022-09-03T09:26:42.417Z,22.62
2022-09-03T09:29:12.407Z,24.66
2022-09-03T09:32:09.465Z,22.51
2022-09-03T09:34:41.296Z,20.79
2022-09-03T09:37:13.357Z,19.67
2022-09-03T09:39:42.353Z,22.52
2022-09-03T09:42:12.818Z,22.86
2022-09-03T09:44:43.009Z,21.77
2022-09-03T09:47:14.127Z,22.59
2022-09-03T09:49:54.182Z,20.23
2022-09-03T09:52:25.857Z,22.06
2022-09-03T09:55:07.422Z,23.86
2022-09-03T09:57:35.692Z,24.20
2022-09-03T10:00:08.873Z,23.62
2022-09-03T10:02:42.415Z,24.31
2022-09-03T10:05:20.287Z,20.67
2022-09-03T10:07:56.729Z,24.69
2022-09-03T10:10:25.989Z,25.61
2022-09-03T10:13:01.695Z,24.25
2022-09-03T10:15:37.998Z,23.69
2022-09-03T10:18:15.515Z,22.78
2022-09-03T10:20:51.786Z,22.55
2022-09-03T10:23:23.107Z,25.33
2022-09-03T10:26:04.623Z,28.25
2022-09-03T10:28:37.312Z,27.86
2022-09-03T10:31:21.271Z,27.60
2022-09-03T10:33:55.417Z,26.46
2022-09-03T10:36:27.204Z,28.22
2022-09-03T10:39:06.225Z,24.53
2022-09-03T10:41:55.904Z,26.46
2022-09-03T10:44:38.750Z,27.11
2022-09-03T10:47:22.274Z,24.85
2022-09-03T10:49:56.896Z,29.37
2022-09-03T10:52:37.223Z,25.87
2022-09-03T10:55:19.973Z,25.92
2022-09-03T10:57:54.394Z,23.27
2022-09-03T11:00:22.436Z,23.89
2022-09-03T11:03:25.716Z,25.97
2022-09-03T11:06:01.620Z,27.87
2022-09-03T11:08:34.433Z,29.51
2022-09-03T11:11:11.952Z,28.23
2022-09-03T11:13:45.354Z,32.06
2022-09-03T11:16:20.132Z,30.78
2022-09-03T11:18:52.709Z,30.61
2022-09-03T11:21:24.264Z,28.98
2022-09-03T11:24:05.527Z,26.81
2022-09-03T11:26:35.328Z,26.50
2022-09-03T11:29:10.167Z,29.75
2022-09-03T11:32:11.977Z,27.75
2022-09-03T11:34:47.749Z,26.33
2022-09-03T11:37:22.028Z,28.04
2022-09-03T11:40:00.602Z,30.87
2022-09-03T11:42:35.161Z,30.41
2022-09-03T11:45:21.001Z,28.89
2022-09-03T11:47:49.744Z,28.79
2022-09-03T11:50:22.692Z,30.62
2022-09-03T11:52:53.946Z,30.58
2022-09-03T11:55:38.451Z,32.75
2022-09-03T11:58:14.243Z,32.60
2022-09-03T12:00:45.316Z,30.10
2022-09-03T12:03:18.063Z,32.45
2022-09-03T12:05:59.182Z,32.06
2022-09-03T12:08:49.953Z,30.83
2022-09-03T12:11:35.842Z,32.40
2022-09-03T12:14:13.944Z,31.66
2022-09-03T12:16:58.591Z,33.66
2022-09-03T12:19:34.041Z,34.94
2022-09-03T12:22:04.237Z,34.33
2022-09-03T12:24:38.388Z,34.10
2022-09-03T12:27:10.468Z,33.17
2022-09-03T12:29:39.208Z,32.31
2022-09-03T12:32:11.740Z,28.77
2022-09-03T12:34:39.718Z,27.75
2022-09-03T12:38:04.113Z,31.73
2022-09-03T12:40:18.800Z,31.09
2022-09-03T12:42:48.767Z,32.91
2022-09-03T12:45:22.045Z,33.07
2022-09-03T12:47:50.446Z,32.86
2022-09-03T12:50:20.898Z,32.49
2022-09-03T12:52:52.233Z,33.01
2022-09-03T12:55:29.495Z,31.47
2022-09-03T12:58:05.371Z,32.27
2022-09-03T13:00:39.224Z,32.46
2022-09-03T13:03:13.339Z,33.29
2022-09-03T13:05:45.762Z,31.43
2022-09-03T13:08:20.871Z,32.21
2022-09-03T13:10:53.215Z,32.68
2022-09-03T13:13:25.856Z,33.20
2022-09-03T13:16:13.566Z,32.80
2022-09-03T13:18:52.789Z,32.37
2022-09-03T13:21:31.938Z,31.82
2022-09-03T13:24:12.014Z,30.75
2022-09-03T13:26:51.960Z,30.03
2022-09-03T13:29:40.442Z,29.12
2022-09-03T13:32:26.355Z,29.37
2022-09-03T13:34:58.305Z,28.02
2022-09-03T13:37:31.869Z,25.98
2022-09-03T13:40:04.315Z,27.36
2022-09-03T13:42:39.548Z,28.81
2022-09-03T13:45:27.140Z,31.46
2022-09-03T13:48:19.524Z,30.92
2022-09-03T13:50:59.136Z,29.56
2022-09-03T13:53:39.045Z,26.21
2022-09-03T13:56:17.557Z,28.38
2022-09-03T13:58:49.969Z,29.56
2022-09-03T14:01:24.242Z,30.03
2022-09-03T14:03:56.650Z,29.70
2022-09-03T14:06:41.746Z,30.00
2022-09-03T14:09:23.086Z,30.11
2022-09-03T14:11:57.784Z,27.75
2022-09-03T14:14:38.850Z,25.17
2022-09-03T14:17:14.723Z,24.08
2022-09-03T14:19:49.690Z,26.78
2022-09-03T14:22:22.192Z,24.42
2022-09-03T14:24:53.207Z,25.06
2022-09-03T14:27:26.836Z,27.44
2022-09-03T14:29:59.795Z,29.12
2022-09-03T14:32:42.601Z,31.50
2022-09-03T14:35:37.454Z,31.14
2022-09-03T14:38:31.796Z,32.20
2022-09-03T14:41:06.941Z,32.47
2022-09-03T14:43:57.171Z,32.26
2022-09-03T14:46:37.670Z,33.44
2022-09-03T14:49:19.227Z,33.27
2022-09-03T14:52:10.002Z,33.29
2022-09-03T14:55:05.898Z,31.44
2022-09-03T14:57:59.674Z,26.88
2022-09-03T15:00:34.758Z,27.82
2022-09-03T15:03:30.337Z,28.82
2022-09-03T15:06:14.396Z,30.23
2022-09-03T15:08:55.617Z,30.61
2022-09-03T15:11:25.759Z,30.87
2022-09-03T15:14:02.381Z,32.56
2022-09-03T15:16:47.736Z,33.13
2022-09-03T15:19:35.529Z,33.89
2022-09-03T15:22:15.114Z,31.72
2022-09-03T15:24:52.598Z,32.68
2022-09-03T15:27:44.623Z,34.57
2022-09-03T15:30:14.103Z,35.03
2022-09-03T15:32:52.850Z,35.47
2022-09-03T15:35:41.291Z,35.20
2022-09-03T15:38:14.183Z,33.31
2022-09-03T15:40:51.797Z,33.81
2022-09-03T15:43:23.606Z,33.29
2022-09-03T15:45:58.331Z,32.57
2022-09-03T15:48:35.241Z,31.21
2022-09-03T15:51:18.107Z,30.74
2022-09-03T15:53:53.375Z,30.47
2022-09-03T15:56:28.068Z,29.77
2022-09-03T15:59:04.823Z,30.35
2022-09-03T16:01:51.287Z,29.95
2022-09-03T16:04:33.499Z,31.37
2022-09-03T16:07:11.402Z,31.32
2022-09-03T16:10:20.686Z,30.67
2022-09-03T16:12:53.956Z,31.88
2022-09-03T16:15:26.821Z,33.69
2022-09-03T16:18:02.612Z,35.12
2022-09-03T16:20:37.946Z,35.42
2022-09-03T16:23:13.173Z,34.98
2022-09-03T16:25:51.452Z,35.42
2022-09-03T16:28:25.545Z,35.82
2022-09-03T16:31:05.098Z,36.44
2022-09-03T16:33:43.917Z,36.28
2022-09-03T16:36:25.170Z,36.03
2022-09-03T16:39:02.944Z,36.52
2022-09-03T16:41:37.607Z,36.23
2022-09-03T16:44:16.011Z,37.17
2022-09-03T16:46:52.607Z,36.95
2022-09-03T16:49:38.354Z,37.10
2022-09-03T16:52:15.965Z,37.57
2022-09-03T16:55:05.178Z,38.78
2022-09-03T16:57:50.306Z,38.67
2022-09-03T17:00:22.025Z,39.35
2022-09-03T17:03:06.104Z,39.60
2022-09-03T17:05:59.510Z,40.25
2022-09-03T17:08:38.203Z,40.58
2022-09-03T17:11:20.311Z,41.34
2022-09-03T17:14:03.699Z,42.48
2022-09-03T17:16:44.493Z,42.75
2022-09-03T17:19:24.002Z,43.24
2022-09-03T17:22:07.822Z,43.67
2022-09-03T17:24:45.132Z,44.84
2022-09-03T17:27:33.070Z,44.72
2022-09-03T17:30:09.342Z,45.01
2022-09-03T17:33:33.952Z,45.56
2022-09-03T17:36:13.282Z,46.18
2022-09-03T17:39:08.913Z,46.86
2022-09-03T17:41:46.594Z,47.14
2022-09-03T17:44:21.714Z,47.18
2022-09-03T17:47:06.356Z,48.27
2022-09-03T17:49:44.937Z,48.36
2022-09-03T17:52:24.843Z,48.88
2022-09-03T17:54:56.211Z,49.05
2022-09-03T17:57:30.876Z,49.24
2022-09-03T18:00:04.112Z,49.51
2022-09-03T18:02:44.533Z,49.60
2022-09-03T18:05:20.255Z,49.67
2022-09-03T18:07:55.676Z,49.88
2022-09-03T18:10:31.251Z,50.08
2022-09-03T18:13:08.284Z,50.30
2022-09-03T18:15:40.397Z,50.67
2022-09-03T18:18:19.106Z,51.01
2022-09-03T18:21:30.677Z,51.36
2022-09-03T18:24:21.440Z,51.52
2022-09-03T18:27:11.788Z,51.46
2022-09-03T18:30:04.193Z,51.58
2022-09-03T18:32:49.695Z,51.34
2022-09-03T18:35:37.123Z,51.61
2022-09-03T18:38:23.376Z,51.77
2022-09-03T18:41:17.176Z,52.05
2022-09-03T18:44:13.134Z,52.19
2022-09-03T18:50:26.765Z,52.49
2022-09-03T18:53:18.296Z,53.12
2022-09-03T18:56:15.960Z,53.46
2022-09-03T18:59:15.512Z,53.67
2022-09-03T19:02:01.735Z,54.55
2022-09-03T19:04:59.311Z,55.05
2022-09-03T19:07:53.699Z,54.99
2022-09-03T19:10:54.804Z,55.06
2022-09-03T19:13:50.871Z,54.93
2022-09-03T19:16:44.828Z,54.84
2022-09-03T19:19:56.562Z,55.31
2022-09-03T19:22:51.476Z,56.44
2022-09-03T19:25:37.277Z,55.76
2022-09-03T19:28:34.240Z,56.10
2022-09-03T19:31:36.565Z,56.67
2022-09-03T19:34:31.272Z,56.57
2022-09-03T19:37:23.686Z,55.29
2022-09-03T19:40:21.310Z,55.44
2022-09-03T19:43:16.765Z,54.84
2022-09-03T19:46:13.008Z,54.28
2022-09-03T19:49:08.750Z,54.35
2022-09-03T19:52:00.882Z,54.66
2022-09-03T19:54:48.032Z,55.06
2022-09-03T19:57:36.281Z,54.78
2022-09-03T20:00:29.589Z,55.39
2022-09-03T20:03:20.634Z,55.21
2022-09-03T20:06:10.800Z,55.63
2022-09-03T20:08:57.303Z,55.93
2022-09-03T20:11:27.817Z,55.99
2022-09-03T20:14:16.717Z,55.82
2022-09-03T20:17:04.737Z,56.77
2022-09-03T20:19:42.316Z,57.69
2022-09-03T20:22:20.781Z,57.79
2022-09-03T20:25:05.115Z,58.07
2022-09-03T20:27:47.413Z,58.22
2022-09-03T20:30:18.404Z,58.54
2022-09-03T20:33:11.139Z,58.02
2022-09-03T20:35:57.068Z,57.55
2022-09-03T20:38:56.082Z,57.41
2022-09-03T20:41:31.213Z,58.11
2022-09-03T20:44:28.507Z,57.95
2022-09-03T20:47:11.300Z,58.60
2022-09-03T20:49:48.835Z,58.83
2022-09-03T20:52:22.913Z,58.37
2022-09-03T20:55:05.938Z,58.48
2022-09-03T20:57:44.918Z,58.04
2022-09-03T21:00:15.668Z,58.05
2022-09-03T21:03:14.268Z,58.34
2022-09-03T21:05:51.262Z,58.15
2022-09-03T21:08:32.946Z,58.11
2022-09-03T21:11:09.596Z,58.66
2022-09-03T21:13:43.960Z,59.74
2022-09-03T21:16:24.924Z,60.36
2022-09-03T21:19:04.676Z,60.24
2022-09-03T21:21:43.749Z,58.98
2022-09-03T21:24:18.300Z,59.15
2022-09-03T21:26:52.078Z,58.59
2022-09-03T21:29:26.522Z,59.64
2022-09-03T21:32:02.315Z,60.32
2022-09-03T21:34:33.063Z,59.87
2022-09-03T21:37:05.079Z,59.50
2022-09-03T21:39:42.482Z,60.70
2022-09-03T21:42:14.901Z,60.81
2022-09-03T21:44:52.584Z,60.59
2022-09-03T21:47:22.179Z,60.61
2022-09-03T21:50:07.412Z,60.75
2022-09-03T21:52:43.677Z,60.99
2022-09-03T21:55:22.203Z,61.80
2022-09-03T21:58:05.863Z,61.83
2022-09-03T22:00:33.789Z,61.44
2022-09-03T22:03:02.146Z,60.84
2022-09-03T22:05:38.202Z,60.08
2022-09-03T22:08:14.453Z,60.38
2022-09-03T22:10:55.225Z,60.64
2022-09-03T22:13:31.463Z,60.58
2022-09-03T22:16:07.207Z,60.67
2022-09-03T22:18:36.493Z,61.12
2022-09-03T22:21:13.333Z,60.65
2022-09-03T22:23:51.277Z,60.65
2022-09-03T22:26:32.298Z,60.47
2022-09-03T22:29:08.213Z,60.65
2022-09-03T22:31:54.398Z,60.80
2022-09-03T22:34:33.861Z,60.46
2022-09-03T22:37:06.865Z,60.83
2022-09-03T22:39:37.345Z,60.71
2022-09-03T22:42:23.906Z,61.94
2022-09-03T22:45:12.745Z,62.19
2022-09-03T22:47:54.163Z,62.42
2022-09-03T22:50:29.188Z,62.56
2022-09-03T22:53:10.445Z,62.82
2022-09-03T22:55:42.188Z,63.09
2022-09-03T22:58:17.138Z,63.11
2022-09-03T23:00:50.141Z,63.16
2022-09-03T23:03:25.724Z,62.87
2022-09-03T23:06:01.818Z,62.45
2022-09-03T23:08:33.414Z,62.52
2022-09-03T23:11:06.885Z,63.21
2022-09-03T23:13:41.928Z,63.46
2022-09-03T23:16:19.188Z,63.23
2022-09-03T23:18:51.455Z,62.64
2022-09-03T23:21:28.182Z,62.40
2022-09-03T23:24:00.842Z,62.47
2022-09-03T23:26:36.751Z,62.73
2022-09-03T23:29:12.806Z,62.98
2022-09-03T23:31:40.760Z,62.74
2022-09-03T23:34:09.987Z,62.99
2022-09-03T23:37:22.343Z,63.17
2022-09-03T23:40:04.696Z,62.72
2022-09-03T23:42:48.761Z,62.62
2022-09-03T23:45:29.356Z,62.75
2022-09-03T23:48:09.062Z,62.55
2022-09-03T23:50:46.277Z,62.62
2022-09-03T23:53:28.270Z,63.01
2022-09-03T23:56:09.841Z,63.82
2022-09-03T23:58:54.474Z,64.24
